createdAt,value
2023-11-17T00:01:25.702Z,10.40
2023-11-17T00:03:56.782Z,10.35
2023-11-17T00:06:27.749Z,10.36
2023-11-17T00:09:00.752Z,10.34
2023-11-17T00:11:31.776Z,10.24
2023-11-17T00:14:02.541Z,10.23
2023-11-17T00:16:33.464Z,10.19
2023-11-17T00:19:07.436Z,10.09
2023-11-17T00:21:38.309Z,9.98
2023-11-17T00:24:10.745Z,9.90
2023-11-17T00:26:41.631Z,9.82
2023-11-17T00:29:12.575Z,9.75
2023-11-17T00:31:43.472Z,9.69
2023-11-17T00:34:14.419Z,9.64
2023-11-17T00:36:48.443Z,9.62
2023-11-17T00:39:19.348Z,9.59
2023-11-17T00:41:50.103Z,9.52
2023-11-17T00:44:20.935Z,9.48
2023-11-17T00:46:52.000Z,9.43
2023-11-17T00:49:23.052Z,9.41
2023-11-17T00:51:54.352Z,9.40
2023-11-17T00:54:27.773Z,9.44
2023-11-17T00:56:58.912Z,9.49
2023-11-17T00:59:29.803Z,9.53
2023-11-17T01:02:02.932Z,9.55
2023-11-17T01:04:33.801Z,9.55
2023-11-17T01:07:04.575Z,9.54
2023-11-17T01:09:35.349Z,9.50
2023-11-17T01:12:06.409Z,9.43
2023-11-17T01:14:37.868Z,9.38
2023-11-17T01:17:08.783Z,9.40
2023-11-17T01:19:41.633Z,9.43
2023-11-17T01:22:13.244Z,9.44
2023-11-17T01:24:44.249Z,9.49
2023-11-17T01:27:15.174Z,9.49
2023-11-17T01:29:46.011Z,9.44
2023-11-17T01:32:17.436Z,9.41
2023-11-17T01:34:48.495Z,9.39
2023-11-17T01:37:19.889Z,9.37
2023-11-17T01:39:50.750Z,9.35
2023-11-17T01:42:22.961Z,9.34
2023-11-17T01:44:53.796Z,9.39
2023-11-17T01:47:24.769Z,9.42
2023-11-17T01:49:55.534Z,9.41
2023-11-17T01:52:26.387Z,9.40
2023-11-17T01:54:58.260Z,9.39
2023-11-17T01:57:29.180Z,9.38
2023-11-17T02:00:00.287Z,9.38
2023-11-17T02:02:31.344Z,9.37
2023-11-17T02:05:03.126Z,9.38
2023-11-17T02:07:35.388Z,9.36
2023-11-17T02:10:08.565Z,9.36
2023-11-17T02:12:48.608Z,9.33
2023-11-17T02:15:23.080Z,9.34
2023-11-17T02:17:56.246Z,9.34
2023-11-17T02:20:27.818Z,9.33
2023-11-17T02:23:01.418Z,9.34
2023-11-17T02:25:34.479Z,9.31
2023-11-17T02:28:11.968Z,9.29
2023-11-17T02:30:42.947Z,9.28
2023-11-17T02:33:17.625Z,9.31
2023-11-17T02:35:50.553Z,9.32
2023-11-17T02:38:22.164Z,9.29
2023-11-17T02:40:57.472Z,9.29
2023-11-17T02:43:31.239Z,9.27
2023-11-17T02:46:02.746Z,9.27
2023-11-17T02:48:38.161Z,9.32
2023-11-17T02:51:20.383Z,9.38
2023-11-17T02:53:51.585Z,9.42
2023-11-17T02:56:23.249Z,9.44
2023-11-17T02:58:56.020Z,9.48
2023-11-17T03:01:27.300Z,9.50
2023-11-17T03:03:58.223Z,9.50
2023-11-17T03:06:30.419Z,9.45
2023-11-17T03:09:05.914Z,9.43
2023-11-17T03:11:36.837Z,9.41
2023-11-17T03:14:10.035Z,9.38
2023-11-17T03:16:40.913Z,9.35
2023-11-17T03:19:12.704Z,9.30
2023-11-17T03:21:43.918Z,9.23
2023-11-17T03:24:18.998Z,9.22
2023-11-17T03:26:51.431Z,9.24
2023-11-17T03:29:24.302Z,9.26
2023-11-17T03:31:55.685Z,9.28
2023-11-17T03:34:31.098Z,9.29
2023-11-17T03:37:03.831Z,9.29
2023-11-17T03:39:42.445Z,9.32
2023-11-17T03:42:14.099Z,9.32
2023-11-17T03:44:44.959Z,9.33
2023-11-17T03:47:16.880Z,9.33
2023-11-17T03:49:48.946Z,9.33
2023-11-17T03:52:24.695Z,9.30
2023-11-17T03:54:57.830Z,9.26
2023-11-17T03:57:28.838Z,9.24
2023-11-17T04:00:01.087Z,9.24
2023-11-17T04:02:32.195Z,9.26
2023-11-17T04:05:05.254Z,9.26
2023-11-17T04:07:36.134Z,9.26
2023-11-17T04:10:09.025Z,9.23
2023-11-17T04:12:40.556Z,9.24
2023-11-17T04:15:14.703Z,9.25
2023-11-17T04:17:45.770Z,9.25
2023-11-17T04:20:20.251Z,9.24
2023-11-17T04:22:50.980Z,9.24
2023-11-17T04:25:21.883Z,9.25
2023-11-17T04:27:52.942Z,9.25
2023-11-17T04:30:23.942Z,9.24
2023-11-17T04:32:55.039Z,9.22
2023-11-17T04:35:26.226Z,9.21
2023-11-17T04:37:57.351Z,9.16
2023-11-17T04:40:29.055Z,9.15
2023-11-17T04:43:00.228Z,9.14
2023-11-17T04:45:37.288Z,9.15
2023-11-17T04:48:10.302Z,9.16
2023-11-17T04:50:41.283Z,9.15
2023-11-17T04:53:17.754Z,9.13
2023-11-17T04:55:50.115Z,9.11
2023-11-17T04:58:20.980Z,9.11
2023-11-17T05:00:52.082Z,9.09
2023-11-17T05:03:23.333Z,9.08
2023-11-17T05:05:55.287Z,9.06
2023-11-17T05:08:26.210Z,8.98
2023-11-17T05:10:57.403Z,8.90
2023-11-17T05:13:28.445Z,8.82
2023-11-17T05:16:01.554Z,8.73
2023-11-17T05:18:34.529Z,8.65
2023-11-17T05:21:07.989Z,8.58
2023-11-17T05:23:40.136Z,8.48
2023-11-17T05:26:12.158Z,8.36
2023-11-17T05:28:42.892Z,8.26
2023-11-17T05:31:13.854Z,8.23
2023-11-17T05:33:44.739Z,8.26
2023-11-17T05:36:15.486Z,8.34
2023-11-17T05:38:48.601Z,8.42
2023-11-17T05:41:21.181Z,8.46
2023-11-17T05:43:51.976Z,8.46
2023-11-17T05:46:24.162Z,8.42
2023-11-17T05:48:55.624Z,8.38
2023-11-17T05:51:27.076Z,8.41
2023-11-17T05:53:59.840Z,8.44
2023-11-17T05:56:31.000Z,8.46
2023-11-17T05:59:01.902Z,8.42
2023-11-17T06:01:33.004Z,8.38
2023-11-17T06:04:04.060Z,8.36
2023-11-17T06:06:34.901Z,8.39
2023-11-17T06:09:06.489Z,8.44
2023-11-17T06:11:38.306Z,8.47
2023-11-17T06:14:09.490Z,8.49
2023-11-17T06:16:40.281Z,8.50
2023-11-17T06:19:13.991Z,8.51
2023-11-17T06:21:45.295Z,8.56
2023-11-17T06:24:16.889Z,8.60
2023-11-17T06:26:47.649Z,8.64
2023-11-17T06:29:20.077Z,8.66
2023-11-17T06:31:51.395Z,8.65
2023-11-17T06:34:22.370Z,8.65
2023-11-17T06:36:53.632Z,8.67
2023-11-17T06:39:24.929Z,8.68
2023-11-17T06:41:55.850Z,8.70
2023-11-17T06:44:27.576Z,8.71
2023-11-17T06:46:58.489Z,8.67
2023-11-17T06:49:29.518Z,8.66
2023-11-17T06:52:00.408Z,8.72
2023-11-17T06:54:31.836Z,8.76
2023-11-17T06:57:02.813Z,8.81
2023-11-17T06:59:33.653Z,8.84
2023-11-17T07:02:04.875Z,8.86
2023-11-17T07:04:35.995Z,8.87
2023-11-17T07:07:10.235Z,8.85
2023-11-17T07:09:44.227Z,8.88
2023-11-17T07:12:15.078Z,8.90
2023-11-17T07:14:46.486Z,8.91
2023-11-17T07:17:17.390Z,8.95
2023-11-17T07:19:48.393Z,8.99
2023-11-17T07:22:19.130Z,9.02
2023-11-17T07:24:49.898Z,9.02
2023-11-17T07:27:20.775Z,9.02
2023-11-17T07:29:54.030Z,9.00
2023-11-17T07:32:24.962Z,8.97
2023-11-17T07:34:57.195Z,8.97
2023-11-17T07:37:28.003Z,8.98
2023-11-17T07:39:58.965Z,9.00
2023-11-17T07:42:29.932Z,8.97
2023-11-17T07:45:00.864Z,8.95
2023-11-17T07:47:31.954Z,8.95
2023-11-17T07:50:04.896Z,8.99
2023-11-17T07:52:35.691Z,9.01
2023-11-17T07:55:09.279Z,9.06
2023-11-17T07:57:40.087Z,9.16
2023-11-17T08:00:20.116Z,9.24
2023-11-17T08:02:51.910Z,9.29
2023-11-17T08:05:22.950Z,9.26
2023-11-17T08:07:55.792Z,9.26
2023-11-17T08:10:29.655Z,9.22
2023-11-17T08:13:01.649Z,9.21
2023-11-17T08:15:32.515Z,9.24
2023-11-17T08:18:05.374Z,9.23
2023-11-17T08:20:40.076Z,9.24
2023-11-17T08:23:11.202Z,9.31
2023-11-17T08:25:41.896Z,9.37
2023-11-17T08:28:13.160Z,9.40
2023-11-17T08:30:52.320Z,9.48
2023-11-17T08:33:25.007Z,9.51
2023-11-17T08:35:55.933Z,9.53
2023-11-17T08:38:27.246Z,9.54
2023-11-17T08:40:58.028Z,9.59
2023-11-17T08:43:28.806Z,9.62
2023-11-17T08:45:59.907Z,9.66
2023-11-17T08:48:31.481Z,9.69
2023-11-17T08:51:02.410Z,9.72
2023-11-17T08:53:33.392Z,9.75
2023-11-17T08:56:04.326Z,9.82
2023-11-17T08:58:36.151Z,9.83
2023-11-17T09:01:08.931Z,9.83
2023-11-17T09:03:39.978Z,9.85
2023-11-17T09:06:11.329Z,9.85
2023-11-17T09:08:42.301Z,9.88
2023-11-17T09:11:13.260Z,9.92
2023-11-17T09:13:44.679Z,9.93
2023-11-17T09:16:17.333Z,9.92
2023-11-17T09:18:48.205Z,9.87
2023-11-17T09:21:19.919Z,9.83
2023-11-17T09:23:50.717Z,9.77
2023-11-17T09:26:23.331Z,9.73
2023-11-17T09:28:54.716Z,9.63
2023-11-17T09:31:25.584Z,9.54
2023-11-17T09:33:56.351Z,9.52
2023-11-17T09:36:27.501Z,9.52
2023-11-17T09:38:58.454Z,9.49
2023-11-17T09:41:29.291Z,9.47
2023-11-17T09:44:00.388Z,9.45
2023-11-17T09:46:32.868Z,9.47
2023-11-17T09:49:04.113Z,9.43
2023-11-17T09:51:35.494Z,9.46
2023-11-17T09:54:06.792Z,9.51
2023-11-17T09:56:37.669Z,9.53
2023-11-17T09:59:08.681Z,9.54
2023-11-17T10:01:40.427Z,9.59
2023-11-17T10:04:13.307Z,9.65
2023-11-17T10:06:44.351Z,9.73
2023-11-17T10:09:15.108Z,9.79
2023-11-17T10:11:47.989Z,9.85
2023-11-17T10:14:18.754Z,9.86
2023-11-17T10:16:51.678Z,9.90
2023-11-17T10:19:22.677Z,9.92
2023-11-17T10:21:55.505Z,9.95
2023-11-17T10:24:29.362Z,9.99
2023-11-17T10:30:05.354Z,10.03
2023-11-17T10:32:48.857Z,10.05
2023-11-17T10:35:27.023Z,10.07
2023-11-17T10:37:59.920Z,10.10
2023-11-17T10:40:33.164Z,10.13
2023-11-17T10:43:06.401Z,10.18
2023-11-17T10:45:39.172Z,10.25
2023-11-17T10:48:14.252Z,10.32
2023-11-17T10:50:45.289Z,10.40
2023-11-17T10:53:21.700Z,10.48
2023-11-17T10:55:54.876Z,10.50
2023-11-17T10:58:27.361Z,10.52
2023-11-17T11:00:58.317Z,10.52
2023-11-17T11:03:30.813Z,10.51
2023-11-17T11:06:01.764Z,10.52
2023-11-17T11:08:32.532Z,10.53
2023-11-17T11:11:05.505Z,10.58
2023-11-17T11:13:38.020Z,10.62
2023-11-17T11:16:12.255Z,10.63
2023-11-17T11:18:48.279Z,10.69
2023-11-17T11:21:19.466Z,10.81
2023-11-17T11:23:50.687Z,10.90
2023-11-17T11:26:21.497Z,10.96
2023-11-17T11:28:52.201Z,11.02
2023-11-17T11:31:23.353Z,11.03
2023-11-17T11:33:54.739Z,11.03
2023-11-17T11:36:25.516Z,11.12
2023-11-17T11:38:57.370Z,11.20
2023-11-17T11:41:28.422Z,11.26
2023-11-17T11:43:59.325Z,11.35
2023-11-17T11:46:31.236Z,11.42
2023-11-17T11:49:02.931Z,11.49
2023-11-17T11:51:34.461Z,11.62
2023-11-17T11:54:06.702Z,11.71
2023-11-17T11:56:37.595Z,11.81
2023-11-17T11:59:08.883Z,11.88
2023-11-17T12:01:41.116Z,11.90
2023-11-17T12:04:12.324Z,11.89
2023-11-17T12:06:49.052Z,11.93
2023-11-17T12:09:22.719Z,12.01
2023-11-17T12:11:54.062Z,12.05
2023-11-17T12:14:30.716Z,12.08
2023-11-17T12:17:03.285Z,12.01
2023-11-17T12:19:34.695Z,11.99
2023-11-17T12:22:06.248Z,11.92
2023-11-17T12:24:38.926Z,11.84
2023-11-17T12:27:09.740Z,11.81
2023-11-17T12:29:44.610Z,11.68
2023-11-17T12:32:16.427Z,11.59
2023-11-17T12:34:47.337Z,11.54
2023-11-17T12:37:18.192Z,11.45
2023-11-17T12:39:51.193Z,11.39
2023-11-17T12:42:23.194Z,11.34
2023-11-17T12:44:53.931Z,11.30
2023-11-17T12:47:30.395Z,11.27
2023-11-17T12:50:03.712Z,11.12
2023-11-17T12:52:34.873Z,11.00
2023-11-17T12:55:08.877Z,10.88
2023-11-17T12:57:41.462Z,10.84
2023-11-17T13:00:17.902Z,10.84
2023-11-17T13:02:49.806Z,10.84
2023-11-17T13:05:20.914Z,10.86
2023-11-17T13:07:51.858Z,10.96
2023-11-17T13:10:22.818Z,11.03
2023-11-17T13:12:54.219Z,11.03
2023-11-17T13:15:28.361Z,11.12
2023-11-17T13:17:59.369Z,11.18
2023-11-17T13:20:31.749Z,11.18
2023-11-17T13:23:02.826Z,11.14
2023-11-17T13:25:33.832Z,11.11
2023-11-17T13:28:06.464Z,11.11
2023-11-17T13:30:37.889Z,11.12
2023-11-17T13:33:09.745Z,11.10
2023-11-17T13:35:44.041Z,11.07
2023-11-17T13:38:15.085Z,11.05
2023-11-17T13:40:46.010Z,10.97
2023-11-17T13:43:19.005Z,10.89
2023-11-17T13:45:51.488Z,10.79
2023-11-17T13:48:22.738Z,10.73
2023-11-17T13:50:57.295Z,10.70
2023-11-17T13:53:31.469Z,10.64
2023-11-17T13:56:03.812Z,10.58
2023-11-17T13:58:34.735Z,10.56
2023-11-17T14:01:08.770Z,10.56
2023-11-17T14:03:41.628Z,10.61
2023-11-17T14:06:12.831Z,10.63
2023-11-17T14:08:43.798Z,10.66
2023-11-17T14:11:15.873Z,10.68
2023-11-17T14:13:46.839Z,10.67
2023-11-17T14:16:17.781Z,10.64
2023-11-17T14:18:48.650Z,10.66
2023-11-17T14:21:20.461Z,10.69
2023-11-17T14:23:53.329Z,10.68
2023-11-17T14:26:27.571Z,10.62
2023-11-17T14:28:58.470Z,10.60
2023-11-17T14:31:30.691Z,10.62
2023-11-17T14:34:01.598Z,10.61
2023-11-17T14:36:34.385Z,10.61
2023-11-17T14:39:10.012Z,10.60
2023-11-17T14:41:40.813Z,10.59
2023-11-17T14:44:11.852Z,10.58
2023-11-17T14:46:42.865Z,10.59
2023-11-17T14:49:13.843Z,10.61
2023-11-17T14:51:47.661Z,10.65
2023-11-17T14:54:19.275Z,10.73
2023-11-17T14:56:52.509Z,10.78
2023-11-17T14:59:24.699Z,10.77
2023-11-17T15:01:56.123Z,10.78
2023-11-17T15:04:27.163Z,10.71
2023-11-17T15:07:00.763Z,10.61
2023-11-17T15:09:33.840Z,10.56
2023-11-17T15:12:05.494Z,10.57
2023-11-17T15:14:37.864Z,10.57
2023-11-17T15:17:16.108Z,10.59
2023-11-17T15:19:47.485Z,10.63
2023-11-17T15:22:18.449Z,10.66
2023-11-17T15:24:50.453Z,10.65
2023-11-17T15:27:21.271Z,10.67
2023-11-17T15:29:52.376Z,10.66
2023-11-17T15:32:26.175Z,10.66
2023-11-17T15:34:58.153Z,10.68
2023-11-17T15:37:30.259Z,10.69
2023-11-17T15:40:01.393Z,10.73
2023-11-17T15:42:32.350Z,10.71
2023-11-17T15:45:13.061Z,10.67
2023-11-17T15:47:44.934Z,10.63
2023-11-17T15:50:16.099Z,10.59
2023-11-17T15:52:47.266Z,10.57
2023-11-17T15:55:18.459Z,10.53
2023-11-17T15:57:50.168Z,10.53
2023-11-17T16:00:28.025Z,10.53
2023-11-17T16:02:59.206Z,10.51
2023-11-17T16:05:35.176Z,10.45
2023-11-17T16:08:06.237Z,10.41
2023-11-17T16:10:37.216Z,10.40
2023-11-17T16:13:07.877Z,10.39
2023-11-17T16:15:38.836Z,10.38
2023-11-17T16:18:09.774Z,10.40
2023-11-17T16:20:40.695Z,10.43
2023-11-17T16:23:15.840Z,10.44
2023-11-17T16:25:47.513Z,10.37
2023-11-17T16:28:18.561Z,10.32
2023-11-17T16:30:52.583Z,10.34
2023-11-17T16:33:23.411Z,10.38
2023-11-17T16:35:56.794Z,10.39
2023-11-17T16:38:28.274Z,10.37
2023-11-17T16:41:01.769Z,10.32
2023-11-17T16:43:32.928Z,10.31
2023-11-17T16:46:06.178Z,10.32
2023-11-17T16:48:40.274Z,10.30
2023-11-17T16:51:11.855Z,10.29
2023-11-17T16:53:42.738Z,10.30
2023-11-17T16:56:13.654Z,10.29
2023-11-17T16:58:45.422Z,10.30
2023-11-17T17:01:16.639Z,10.34
2023-11-17T17:03:47.492Z,10.37
2023-11-17T17:06:20.462Z,10.34
2023-11-17T17:08:51.332Z,10.30
2023-11-17T17:11:24.237Z,10.27
2023-11-17T17:14:02.925Z,10.22
2023-11-17T17:16:40.897Z,10.19
2023-11-17T17:19:13.225Z,10.13
2023-11-17T17:21:44.109Z,10.06
2023-11-17T17:24:17.671Z,10.03
2023-11-17T17:26:49.655Z,9.99
2023-11-17T17:29:25.676Z,9.95
2023-11-17T17:31:56.815Z,9.95
2023-11-17T17:35:05.608Z,10.01
2023-11-17T17:37:35.043Z,10.05
2023-11-17T17:40:08.166Z,10.06
2023-11-17T17:42:36.359Z,10.04
2023-11-17T17:45:05.443Z,10.02
2023-11-17T17:47:38.152Z,10.00
2023-11-17T17:50:10.103Z,9.99
2023-11-17T17:52:38.352Z,10.00
2023-11-17T17:55:07.177Z,9.96
2023-11-17T17:57:35.928Z,9.94
2023-11-17T18:00:06.492Z,9.93
2023-11-17T18:02:35.199Z,9.94
2023-11-17T18:05:06.796Z,9.97
2023-11-17T18:07:36.189Z,10.03
2023-11-17T18:10:05.779Z,10.09
2023-11-17T18:12:33.829Z,10.07
2023-11-17T18:15:03.043Z,10.04
2023-11-17T18:17:36.282Z,9.99
2023-11-17T18:20:05.645Z,9.91
2023-11-17T18:22:34.828Z,9.86
2023-11-17T18:25:03.312Z,9.84
2023-11-17T18:27:38.120Z,9.87
2023-11-17T18:30:09.428Z,9.89
2023-11-17T18:32:42.670Z,9.91
2023-11-17T18:35:13.531Z,9.96
2023-11-17T18:37:42.580Z,10.01
2023-11-17T18:40:11.643Z,10.11
2023-11-17T18:42:41.657Z,10.22
2023-11-17T18:45:11.365Z,10.31
2023-11-17T18:47:40.695Z,10.39
2023-11-17T18:50:09.348Z,10.46
2023-11-17T18:52:39.428Z,10.50
2023-11-17T18:55:12.290Z,10.53
2023-11-17T18:57:40.494Z,10.54
2023-11-17T19:00:11.512Z,10.53
2023-11-17T19:02:40.972Z,10.56
2023-11-17T19:05:15.752Z,10.51
2023-11-17T19:07:46.730Z,10.45
2023-11-17T19:10:19.854Z,10.43
2023-11-17T19:12:48.203Z,10.40
2023-11-17T19:15:16.317Z,10.38
2023-11-17T19:17:45.176Z,10.36
2023-11-17T19:20:15.503Z,10.35
2023-11-17T19:22:44.858Z,10.37
2023-11-17T19:25:14.034Z,10.40
2023-11-17T19:27:45.234Z,10.41
2023-11-17T19:30:15.101Z,10.41
2023-11-17T19:32:44.818Z,10.42
2023-11-17T19:35:13.467Z,10.46
2023-11-17T19:37:42.028Z,10.48
2023-11-17T19:40:13.366Z,10.53
2023-11-17T19:42:42.756Z,10.55
2023-11-17T19:45:11.813Z,10.55
2023-11-17T19:47:40.316Z,10.55
2023-11-17T19:50:14.288Z,10.56
2023-11-17T19:52:44.894Z,10.58
2023-11-17T19:55:13.389Z,10.55
2023-11-17T19:57:42.387Z,10.50
2023-11-17T20:00:12.437Z,10.50
2023-11-17T20:02:42.059Z,10.55
2023-11-17T20:05:10.798Z,10.59
2023-11-17T20:07:42.094Z,10.63
2023-11-17T20:10:12.888Z,10.65
2023-11-17T20:12:41.677Z,10.60
2023-11-17T20:15:14.948Z,10.49
2023-11-17T20:17:54.874Z,10.37
2023-11-17T20:20:26.036Z,10.29
2023-11-17T20:22:55.491Z,10.17
2023-11-17T20:25:24.009Z,10.10
2023-11-17T20:27:52.672Z,10.05
2023-11-17T20:30:22.408Z,10.04
2023-11-17T20:32:53.335Z,10.04
2023-11-17T20:35:23.582Z,10.05
2023-11-17T20:37:53.056Z,10.05
2023-11-17T20:40:21.505Z,10.07
2023-11-17T20:42:50.789Z,10.12
2023-11-17T20:45:20.603Z,10.18
2023-11-17T20:47:48.803Z,10.24
2023-11-17T20:50:20.849Z,10.24
2023-11-17T20:52:51.115Z,10.21
2023-11-17T20:55:20.738Z,10.19
2023-11-17T20:57:59.956Z,10.15
2023-11-17T21:00:33.735Z,10.15
2023-11-17T21:03:09.076Z,10.15
2023-11-17T21:05:39.516Z,10.15
2023-11-17T21:08:11.197Z,10.21
2023-11-17T21:10:40.435Z,10.26
2023-11-17T21:13:09.110Z,10.31
2023-11-17T21:15:37.349Z,10.31
2023-11-17T21:18:08.366Z,10.30
2023-11-17T21:20:37.376Z,10.26
2023-11-17T21:23:06.036Z,10.20
2023-11-17T21:25:37.093Z,10.21
2023-11-17T21:28:05.527Z,10.23
2023-11-17T21:30:33.948Z,10.25
2023-11-17T21:33:02.141Z,10.21
2023-11-17T21:35:32.363Z,10.22
2023-11-17T21:38:00.888Z,10.22
2023-11-17T21:40:29.270Z,10.24
2023-11-17T21:42:57.456Z,10.21
2023-11-17T21:45:28.359Z,10.16
2023-11-17T21:47:56.794Z,10.12
2023-11-17T21:50:25.755Z,10.07
2023-11-17T21:52:54.936Z,10.01
2023-11-17T21:55:23.914Z,9.95
2023-11-17T21:57:54.815Z,9.89
2023-11-17T22:00:30.081Z,9.85
2023-11-17T22:02:58.615Z,9.88
2023-11-17T22:05:27.538Z,9.92
2023-11-17T22:07:55.825Z,9.93
2023-11-17T22:10:24.019Z,9.91
2023-11-17T22:12:53.077Z,9.85
2023-11-17T22:15:21.474Z,9.84
2023-11-17T22:17:50.484Z,9.90
2023-11-17T22:20:19.782Z,9.95
2023-11-17T22:22:49.466Z,9.94
2023-11-17T22:25:20.431Z,9.98
2023-11-17T22:27:48.540Z,10.04
2023-11-17T22:30:20.736Z,10.10
2023-11-17T22:32:52.548Z,10.15
2023-11-17T22:35:20.836Z,10.18
2023-11-17T22:37:50.175Z,10.18
2023-11-17T22:43:27.747Z,10.19
2023-11-17T22:45:55.927Z,10.22
2023-11-17T22:48:25.243Z,10.26
2023-11-17T22:50:53.380Z,10.29
2023-11-17T22:53:21.500Z,10.32
2023-11-17T22:55:49.570Z,10.34
2023-11-17T22:58:17.732Z,10.36
2023-11-17T23:00:48.997Z,10.38
2023-11-17T23:03:21.167Z,10.39
2023-11-17T23:05:51.023Z,10.42
2023-11-17T23:08:19.012Z,10.43
2023-11-17T23:10:47.272Z,10.43
2023-11-17T23:13:15.547Z,10.46
2023-11-17T23:15:43.712Z,10.49
2023-11-17T23:18:13.365Z,10.50
2023-11-17T23:20:41.538Z,10.48
2023-11-17T23:23:09.734Z,10.42
2023-11-17T23:25:38.421Z,10.39
2023-11-17T23:28:06.828Z,10.35
2023-11-17T23:30:35.696Z,10.36
2023-11-17T23:33:15.209Z,10.31
2023-11-17T23:35:44.201Z,10.25
2023-11-17T23:38:12.404Z,10.25
2023-11-17T23:40:40.557Z,10.25
2023-11-17T23:43:09.280Z,10.24
2023-11-17T23:45:37.474Z,10.25
2023-11-17T23:48:06.378Z,10.26
2023-11-17T23:50:35.211Z,10.23
2023-11-17T23:53:07.085Z,10.22
2023-11-17T23:55:36.036Z,10.18
2023-11-17T23:58:06.507Z,10.12
